CheckWX is a tool to help pilots better visualize weather data.  It is not intended as a substitute for an official pre-flight weather briefing.

12:55:33 UTC

KRKD METAR
Knox County Regional Airport
Rockland, Maine, USA
Current

60 mins ago

KRKD 221156Z AUTO 31004KT 10SM CLR M02/M07 A3019 RMK AO2 SLP226 60000 70004 T10171072 10022 21017 53038 FZRANO
Observed
Feb-22 @ 11:56 UTC
Wind
  • 310° at 4 KTS
Visibility
10 SM
Flight Rules
VFR
Cloud Levels
  • Clear skies
Temperature
-2°C / 28°F
Dewpoint
-7°C / 19°F
Humidity
69%
Altimeter
30.19" Hg
Pressure
1022.6 hPa
Previous

2 hours ago

KRKD 221056Z AUTO 35005KT 10SM CLR M01/M07 A3015 RMK AO2 SLP210 T10111072 FZRANO
Observed
Feb-22 @ 10:56 UTC
Wind
  • 350° at 5 KTS
Visibility
10 SM
Flight Rules
VFR
Cloud Levels
  • Clear skies
Temperature
-1°C / 30°F
Dewpoint
-7°C / 19°F
Humidity
64%
Altimeter
30.15" Hg
Pressure
1021 hPa
Previous

3 hours ago

KRKD 220956Z AUTO 32006KT 10SM FEW041 M01/M07 A3010 RMK AO2 SLP195 T10061072 FZRANO
Observed
Feb-22 @ 09:56 UTC
Wind
  • 320° at 6 KTS
Visibility
10 SM
Flight Rules
VFR
Cloud Levels
  • Few at 4,100' AGL
Temperature
-1°C / 30°F
Dewpoint
-7°C / 19°F
Humidity
64%
Altimeter
30.1" Hg
Pressure
1019.5 hPa